Time;durP1;ratioP1;P1;durP2;ratioP2;P2;SDS_P1;SDS_P2;PMS_P1;PMS_P2;Temp;Humidity;BMP_temperature;BMP_pressure;BME280_temperature;BME280_humidity;BME280_pressure;Samples;Min_cycle;Max_cycle;Signal;HPM_P1;HPM_P2
2022/06/09 00:01:28;;;;;;;27.80;14.58;;;;;;;18.38;100.00;99563.33;1721275;83;21535;-80
2022/06/09 00:04:24;;;;;;;26.52;15.93;;;;;;;18.38;100.00;99572.91;1721206;83;21006;-81
2022/06/09 00:07:02;;;;;;;25.57;14.20;;;;;;;18.38;100.00;99571.55;1721226;83;21022;-81
2022/06/09 00:09:37;;;;;;;27.32;14.78;;;;;;;18.38;100.00;99572.09;1721434;83;21034;-80
2022/06/09 00:12:05;;;;;;;26.33;15.18;;;;;;;18.38;100.00;99577.56;1721212;83;21054;-81
2022/06/09 00:14:33;;;;;;;28.38;15.50;;;;;;;18.37;100.00;99569.04;1712280;83;21079;-81
2022/06/09 00:17:00;;;;;;;26.30;14.28;;;;;;;18.39;100.00;99567.72;1695131;84;21017;-80
2022/06/09 00:19:27;;;;;;;26.68;15.15;;;;;;;18.40;100.00;99575.42;1695038;84;21028;-81
2022/06/09 00:21:54;;;;;;;24.15;14.43;;;;;;;18.39;100.00;99574.56;1695296;83;21040;-79
2022/06/09 00:24:21;;;;;;;27.93;15.38;;;;;;;18.40;100.00;99583.63;1695109;85;21046;-79
2022/06/09 00:26:48;;;;;;;24.07;14.35;;;;;;;18.38;100.00;99586.59;1695091;84;21474;-81
2022/06/09 00:29:15;;;;;;;28.40;15.60;;;;;;;18.36;100.00;99585.15;1695021;84;21035;-81
2022/06/09 00:31:41;;;;;;;29.30;15.50;;;;;;;18.36;100.00;99588.73;1694962;85;21001;-81
2022/06/09 00:34:09;;;;;;;26.73;15.35;;;;;;;18.36;100.00;99581.90;1694980;85;21004;-81
2022/06/09 00:36:38;;;;;;;29.40;15.95;;;;;;;18.36;100.00;99584.64;1695051;84;21051;-81
2022/06/09 00:39:06;;;;;;;26.90;15.93;;;;;;;18.35;100.00;99589.80;1692346;85;21499;-81
2022/06/09 00:41:40;;;;;;;28.07;16.65;;;;;;;18.34;100.00;99592.25;1687466;84;21608;-80
2022/06/09 00:44:22;;;;;;;29.95;15.75;;;;;;;18.36;100.00;99591.98;1687796;85;20989;-80
2022/06/09 00:46:56;;;;;;;31.15;17.32;;;;;;;18.34;100.00;99586.78;1687456;85;21566;-80
2022/06/09 00:49:34;;;;;;;61.48;18.23;;;;;;;18.34;100.00;99586.78;1687634;84;21075;-79
2022/06/09 00:52:03;;;;;;;75.45;19.90;;;;;;;18.36;100.00;99579.67;1687682;84;21037;-79
2022/06/09 00:54:39;;;;;;;51.25;17.27;;;;;;;18.36;100.00;99584.64;1687881;84;20981;-79
2022/06/09 00:57:15;;;;;;;28.55;15.55;;;;;;;18.36;100.00;99586.52;1686016;84;21125;-80
2022/06/09 00:59:45;;;;;;;27.50;14.85;;;;;;;18.36;100.00;99589.25;1653157;85;21035;-79
2022/06/09 01:02:15;;;;;;;25.90;14.90;;;;;;;18.33;100.00;99584.27;1652981;87;21051;-81
2022/06/09 01:04:42;;;;;;;25.00;15.20;;;;;;;18.31;100.00;99589.97;1624992;88;21644;-79
2022/06/09 01:07:19;;;;;;;24.98;14.63;;;;;;;18.29;100.00;99586.64;1625065;88;21012;-81
2022/06/09 01:09:46;;;;;;;26.25;14.43;;;;;;;18.27;100.00;99581.91;1636118;88;21185;-81
2022/06/09 01:12:29;;;;;;;27.27;15.48;;;;;;;18.26;100.00;99582.16;1652873;85;21059;-81
2022/06/09 01:15:00;;;;;;;25.97;14.40;;;;;;;18.23;100.00;99582.08;1641392;87;21584;-80
2022/06/09 01:17:43;;;;;;;26.35;15.20;;;;;;;18.22;100.00;99584.53;1645502;87;21126;-80
2022/06/09 01:20:30;;;;;;;27.52;15.08;;;;;;;18.20;100.00;99580.66;1644532;87;21040;-79
2022/06/09 01:23:29;;;;;;;27.65;14.90;;;;;;;18.17;100.00;99580.28;1647042;87;21069;-80
2022/06/09 01:26:13;;;;;;;27.37;14.68;;;;;;;18.16;100.00;99573.13;1647718;85;21251;-80
2022/06/09 01:29:19;;;;;;;26.20;14.35;;;;;;;18.13;100.00;99571.70;1647981;87;21054;-80
2022/06/09 01:32:24;;;;;;;28.92;15.13;;;;;;;18.10;100.00;99569.43;1647786;87;21054;-81
2022/06/09 01:35:12;;;;;;;28.30;15.38;;;;;;;18.06;100.00;99560.02;1647431;87;21041;-80
2022/06/09 01:37:47;;;;;;;30.12;15.18;;;;;;;18.02;100.00;99568.38;1647060;87;21121;-79
2022/06/09 01:40:17;;;;;;;26.37;14.60;;;;;;;17.98;100.00;99565.27;1645990;87;21125;-79
2022/06/09 01:42:47;;;;;;;28.30;14.83;;;;;;;17.94;100.00;99564.06;1649599;87;21101;-79
2022/06/09 01:45:21;;;;;;;29.52;15.58;;;;;;;17.89;100.00;99554.89;1649590;87;21090;-79
2022/06/09 01:48:07;;;;;;;30.25;16.25;;;;;;;17.84;100.00;99552.80;1592454;90;21074;-79
2022/06/09 01:50:58;;;;;;;35.83;17.55;;;;;;;17.78;100.00;99557.30;1592720;90;21076;-79
2022/06/09 01:53:50;;;;;;;31.52;15.83;;;;;;;17.71;100.00;99557.92;1591092;90;21081;-78
2022/06/09 01:56:40;;;;;;;31.40;15.80;;;;;;;17.64;100.00;99549.80;1589039;90;21516;-78
2022/06/09 01:59:30;;;;;;;27.93;15.60;;;;;;;17.61;100.00;99542.59;1588716;90;21465;-78
2022/06/09 02:02:01;;;;;;;28.40;15.80;;;;;;;17.60;100.00;99547.73;1527518;91;21078;-79
2022/06/09 02:04:39;;;;;;;26.93;15.30;;;;;;;17.58;100.00;99541.16;1527412;94;21078;-79
2022/06/09 02:07:07;;;;;;;29.95;15.65;;;;;;;17.60;100.00;99541.77;1527872;93;21094;-79
2022/06/09 02:09:35;;;;;;;27.22;14.80;;;;;;;17.62;100.00;99549.20;1527649;94;21109;-78
2022/06/09 02:12:06;;;;;;;25.92;14.38;;;;;;;17.64;100.00;99551.16;1527593;94;21123;-78
2022/06/09 02:14:33;;;;;;;26.45;15.55;;;;;;;17.67;100.00;99553.13;1519354;94;21073;-80
2022/06/09 02:17:04;;;;;;;27.20;15.40;;;;;;;17.71;100.00;99554.36;1503642;94;21110;-79
2022/06/09 02:19:31;;;;;;;26.60;14.78;;;;;;;17.74;100.00;99549.27;1503641;95;21094;-79
2022/06/09 02:21:58;;;;;;;24.27;14.70;;;;;;;17.78;100.00;99560.58;1519137;92;21665;-79
2022/06/09 02:24:27;;;;;;;26.27;14.30;;;;;;;17.83;100.00;99556.63;1561258;92;21621;-80
2022/06/09 02:26:54;;;;;;;26.20;14.40;;;;;;;17.88;100.00;99558.14;1561409;92;21072;-79
2022/06/09 02:29:21;;;;;;;24.10;13.50;;;;;;;17.94;100.00;99558.59;1561607;92;21082;-79
2022/06/09 02:31:48;;;;;;;24.65;13.75;;;;;;;17.99;100.00;99564.21;1561245;92;21083;-80
2022/06/09 02:34:15;;;;;;;26.07;14.58;;;;;;;18.02;100.00;99560.16;1561551;92;21047;-79
2022/06/09 02:36:41;;;;;;;25.82;13.78;;;;;;;18.06;100.00;99563.27;1561556;92;21082;-79
2022/06/09 02:39:10;;;;;;;28.80;13.85;;;;;;;18.06;100.00;99565.50;1559276;91;21211;-78
2022/06/09 02:41:39;;;;;;;25.65;14.23;;;;;;;18.08;100.00;99563.36;1550093;91;21105;-79
2022/06/09 02:44:06;;;;;;;26.45;13.78;;;;;;;18.11;100.00;99565.61;1559085;91;21086;-79
2022/06/09 02:46:34;;;;;;;25.48;13.32;;;;;;;18.14;100.00;99563.78;1575224;91;21070;-78
2022/06/09 02:49:01;;;;;;;22.60;13.05;;;;;;;18.16;100.00;99567.66;1574848;91;21110;-79
2022/06/09 02:51:34;;;;;;;24.18;13.30;;;;;;;18.19;100.00;99570.77;1574715;90;21066;-79
2022/06/09 02:54:06;;;;;;;23.62;13.40;;;;;;;18.20;100.00;99567.48;1575413;91;21075;-81
2022/06/09 02:56:34;;;;;;;26.55;14.28;;;;;;;18.22;100.00;99566.74;1575270;91;21098;-79
2022/06/09 02:59:01;;;;;;;28.10;14.53;;;;;;;18.28;100.00;99559.50;1620649;87;21335;-79
2022/06/09 03:03:57;;;;;;;40.60;21.60;;;;;;;18.44;100.00;99569.77;1608686;89;21173;-79
2022/06/09 03:06:24;;;;;;;29.72;16.23;;;;;;;18.53;100.00;99567.53;1608830;89;21100;-79
2022/06/09 03:08:51;;;;;;;31.75;16.60;;;;;;;18.59;100.00;99565.20;1608794;88;21038;-80
2022/06/09 03:11:18;;;;;;;29.85;16.80;;;;;;;18.66;100.00;99569.22;1608945;89;21452;-80
2022/06/09 03:13:46;;;;;;;37.60;19.15;;;;;;;18.69;100.00;99568.75;1609027;89;21046;-79
2022/06/09 03:16:14;;;;;;;33.02;16.97;;;;;;;18.73;100.00;99558.98;1621364;88;21071;-80
2022/06/09 03:18:43;;;;;;;29.90;16.65;;;;;;;18.78;100.00;99553.09;1621624;88;21537;-78
2022/06/09 03:21:11;;;;;;;27.30;15.20;;;;;;;18.84;100.00;99549.99;1621585;88;21078;-78
2022/06/09 03:23:38;;;;;;;22.75;13.08;;;;;;;18.92;100.00;99546.88;1633414;88;21049;-78
2022/06/09 03:26:05;;;;;;;26.15;12.93;;;;;;;19.04;100.00;99544.70;1636430;87;21005;-79
2022/06/09 03:28:32;;;;;;;23.57;11.97;;;;;;;19.18;100.00;99545.29;1636250;87;21043;-79
2022/06/09 03:31:00;;;;;;;25.70;12.05;;;;;;;19.33;100.00;99541.49;1636167;87;21116;-78
2022/06/09 03:33:27;;;;;;;25.50;12.43;;;;;;;19.49;100.00;99541.28;1636828;88;20994;-76
2022/06/09 03:35:54;;;;;;;28.50;12.03;;;;;;;19.61;100.00;99538.53;1637730;88;21057;-77
2022/06/09 03:38:21;;;;;;;27.90;12.00;;;;;;;19.71;100.00;99539.56;1637094;87;21586;-78
2022/06/09 03:40:48;;;;;;;34.35;15.30;;;;;;;19.82;100.00;99541.18;1669682;85;21015;-77
2022/06/09 03:43:15;;;;;;;33.28;15.45;;;;;;;19.89;100.00;99533.64;1680087;85;21076;-78
2022/06/09 03:45:42;;;;;;;30.17;14.83;;;;;;;19.98;100.00;99538.20;1680060;85;21070;-77
2022/06/09 03:48:09;;;;;;;28.02;13.95;;;;;;;20.06;100.00;99540.52;1680195;85;21065;-79
2022/06/09 03:50:36;;;;;;;33.13;15.40;;;;;;;20.18;100.00;99539.93;1680099;85;21015;-78
2022/06/09 03:53:03;;;;;;;28.60;15.53;;;;;;;20.31;100.00;99538.81;1680212;85;21508;-76
2022/06/09 03:55:31;;;;;;;77.82;45.40;;;;;;;20.45;100.00;99540.16;1679887;84;21145;-78
2022/06/09 03:57:58;;;;;;;181.00;107.95;;;;;;;20.60;100.00;99545.61;1679960;85;21082;-79
2022/06/09 04:00:28;;;;;;;139.10;84.10;;;;;;;20.72;100.00;99545.02;1683560;85;21053;-78
2022/06/09 04:02:56;;;;;;;110.28;72.80;;;;;;;20.82;100.00;99536.09;1690144;84;21057;-78
2022/06/09 04:05:22;;;;;;;70.15;39.35;;;;;;;20.97;100.00;99535.52;1690152;85;21065;-78
2022/06/09 04:07:51;;;;;;;36.77;18.82;;;;;;;21.14;100.00;99534.09;1689928;84;21030;-78
2022/06/09 04:10:22;;;;;;;24.07;13.18;;;;;;;21.30;100.00;99544.24;1690031;85;21088;-79
2022/06/09 04:12:50;;;;;;;27.58;11.95;;;;;;;21.45;100.00;99533.98;1690096;85;21030;-78
2022/06/09 04:15:17;;;;;;;25.10;12.13;;;;;;;21.57;100.00;99533.34;1707279;84;21077;-79
2022/06/09 04:17:45;;;;;;;23.70;11.20;;;;;;;21.67;100.00;99524.37;1717027;84;21038;-78
2022/06/09 04:20:16;;;;;;;22.27;11.00;;;;;;;21.77;100.00;99528.63;1717062;83;21047;-79
2022/06/09 04:22:43;;;;;;;96.30;40.90;;;;;;;21.89;100.00;99524.36;1717245;83;21062;-76
2022/06/09 04:25:10;;;;;;;82.08;35.52;;;;;;;22.06;100.00;99523.43;1717428;83;21011;-79
2022/06/09 04:27:39;;;;;;;43.85;21.77;;;;;;;22.26;100.00;99521.45;1717127;83;21094;-79
2022/06/09 04:30:08;;;;;;;30.75;14.03;;;;;;;22.46;100.00;99524.40;1717360;83;21481;-78
2022/06/09 04:32:36;;;;;;;31.07;15.55;;;;;;;22.67;100.00;99531.47;1717243;84;21063;-79
2022/06/09 04:35:03;;;;;;;31.65;13.28;;;;;;;22.87;100.00;99530.78;1717291;84;21026;-80
2022/06/09 04:40:16;;;;;;;40.20;18.25;;;;;;;23.26;100.00;99527.75;1714904;84;21051;-79
2022/06/09 04:42:44;;;;;;;34.25;15.43;;;;;;;23.45;100.00;99535.03;1712088;84;21125;-79
2022/06/09 04:45:11;;;;;;;31.10;12.50;;;;;;;23.58;100.00;99533.14;1711935;84;21016;-77
2022/06/09 04:47:40;;;;;;;41.37;20.12;;;;;;;23.76;100.00;99534.62;1712093;84;21055;-78
2022/06/09 04:50:09;;;;;;;85.62;40.45;;;;;;;23.88;100.00;99544.05;1712224;84;21034;-78
2022/06/09 04:52:36;;;;;;;208.23;75.90;;;;;;;23.97;100.00;99547.12;1712075;84;21055;-76
2022/06/09 04:55:04;;;;;;;184.70;89.72;;;;;;;24.05;100.00;99552.13;1711532;84;21145;-77
2022/06/09 04:57:31;;;;;;;247.88;126.92;;;;;;;24.12;100.00;99552.69;1713038;84;20989;-78
2022/06/09 04:59:58;;;;;;;95.47;52.17;;;;;;;24.22;100.00;99554.10;1676876;85;21023;-78
2022/06/09 05:02:25;;;;;;;38.53;19.42;;;;;;;24.32;100.00;99562.12;1713713;84;21006;-77
2022/06/09 05:04:52;;;;;;;47.83;24.63;;;;;;;24.46;100.00;99567.39;1676844;85;21158;-71
2022/06/09 05:07:19;;;;;;;332.73;164.32;;;;;;;24.58;100.00;99579.60;1675790;86;20987;-73
2022/06/09 05:09:46;;;;;;;291.80;150.00;;;;;;;24.75;100.00;99577.93;1675721;86;21126;-72
2022/06/09 05:12:13;;;;;;;160.52;83.78;;;;;;;24.90;100.00;99586.80;1675469;85;21063;-72
2022/06/09 05:14:41;;;;;;;48.28;31.75;;;;;;;25.06;100.00;99585.67;1664205;84;21035;-74
2022/06/09 05:17:08;;;;;;;72.78;60.63;;;;;;;25.19;100.00;99587.84;1656738;86;21059;-73
2022/06/09 05:19:36;;;;;;;29.90;15.70;;;;;;;25.33;100.00;99593.67;1710806;84;21046;-73
2022/06/09 05:22:03;;;;;;;31.12;12.55;;;;;;;25.49;100.00;99594.47;1707025;84;21056;-73
2022/06/09 05:24:30;;;;;;;27.20;10.78;;;;;;;25.60;100.00;99591.67;1686169;85;21064;-74
2022/06/09 05:26:57;;;;;;;30.35;17.20;;;;;;;25.71;100.00;99603.83;1686452;85;21048;-72
2022/06/09 05:29:24;;;;;;;28.75;12.93;;;;;;;25.81;100.00;99592.44;1686538;85;21088;-77
2022/06/09 05:31:51;;;;;;;25.68;11.65;;;;;;;25.92;100.00;99606.50;1686374;85;21157;-72
2022/06/09 05:34:18;;;;;;;21.40;10.30;;;;;;;26.06;100.00;99601.21;1686729;84;21065;-75
2022/06/09 05:36:46;;;;;;;21.30;11.25;;;;;;;26.24;100.00;99603.34;1702790;84;21069;-76
2022/06/09 05:44:54;;;;;;;35.55;15.13;;;;;;;26.76;100.00;99600.27;1631864;88;21013;-74
2022/06/09 05:47:23;;;;;;;30.17;13.30;;;;;;;26.93;100.00;99597.05;1632086;87;21033;-75
2022/06/09 05:49:52;;;;;;;21.70;10.85;;;;;;;27.08;100.00;99599.70;1632053;88;21621;-74
2022/06/09 05:52:22;;;;;;;22.45;11.22;;;;;;;27.14;100.00;99592.16;1631718;87;21017;-74
2022/06/09 05:54:51;;;;;;;22.58;11.25;;;;;;;27.21;100.00;99601.78;1631905;88;21188;-75
2022/06/09 05:57:20;;;;;;;27.45;11.78;;;;;;;27.36;100.00;99604.19;1631803;87;21037;-74
2022/06/09 05:59:49;;;;;;;21.68;11.88;;;;;;;27.48;100.00;99605.98;1631536;88;21097;-75
2022/06/09 06:02:18;;;;;;;28.00;12.80;;;;;;;27.60;100.00;99609.17;1631769;88;21040;-74
2022/06/09 06:04:46;;;;;;;29.72;12.53;;;;;;;27.71;100.00;99603.52;1631465;88;21057;-75
2022/06/09 06:07:13;;;;;;;73.75;24.37;;;;;;;27.85;100.00;99608.61;1631871;88;21395;-75
2022/06/09 06:09:42;;;;;;;31.45;13.40;;;;;;;28.01;100.00;99608.73;1631649;88;21499;-73
2022/06/09 06:12:11;;;;;;;27.30;11.55;;;;;;;28.18;100.00;99604.63;1631908;88;21037;-75
2022/06/09 06:14:40;;;;;;;30.43;11.35;;;;;;;28.40;100.00;99604.02;1631740;87;21029;-75
2022/06/09 06:17:07;;;;;;;22.60;11.80;;;;;;;28.59;100.00;99601.27;1632012;87;21108;-74
2022/06/09 06:19:34;;;;;;;23.20;13.32;;;;;;;28.74;100.00;99602.43;1631904;87;21073;-73
2022/06/09 06:22:01;;;;;;;25.10;13.48;;;;;;;28.86;100.00;99602.52;1635480;86;21447;-73
2022/06/09 06:24:28;;;;;;;31.97;17.30;;;;;;;28.98;100.00;99605.07;1659386;85;21058;-74
2022/06/09 06:26:55;;;;;;;25.52;12.73;;;;;;;29.06;100.00;99597.19;1659203;86;21640;-74
2022/06/09 06:29:24;;;;;;;31.50;13.25;;;;;;;29.18;100.00;99604.52;1659534;86;20994;-75
2022/06/09 06:31:51;;;;;;;23.45;13.35;;;;;;;29.30;100.00;99605.39;1659231;86;21511;-73
2022/06/09 06:34:19;;;;;;;24.10;11.33;;;;;;;29.41;100.00;99599.07;1651714;86;21085;-74
2022/06/09 06:36:47;;;;;;;19.87;10.50;;;;;;;29.52;100.00;99599.97;1659019;86;21042;-73
2022/06/09 06:39:14;;;;;;;24.23;11.53;;;;;;;29.60;100.00;99599.80;1664534;85;21055;-76
2022/06/09 06:41:42;;;;;;;24.20;11.50;;;;;;;29.71;100.00;99605.45;1701596;84;21030;-76
2022/06/09 06:44:10;;;;;;;26.35;11.48;;;;;;;29.82;100.00;99603.31;1711456;84;21051;-76
2022/06/09 06:46:37;;;;;;;19.98;10.70;;;;;;;29.96;100.00;99606.64;1710608;84;21130;-76
2022/06/09 06:49:05;;;;;;;20.32;10.50;;;;;;;30.06;100.00;99612.82;1710119;84;21003;-77
2022/06/09 06:51:32;;;;;;;23.45;10.35;;;;;;;30.11;100.00;99604.92;1710808;84;21041;-74
2022/06/09 06:53:59;;;;;;;22.37;11.80;;;;;;;30.12;100.00;99604.35;1710516;84;21030;-73
2022/06/09 06:56:26;;;;;;;34.20;17.07;;;;;;;30.17;100.00;99604.24;1710254;84;21030;-77
2022/06/09 06:58:54;;;;;;;25.65;12.37;;;;;;;30.23;100.00;99605.80;1711360;84;21058;-79
2022/06/09 07:01:21;;;;;;;19.48;10.65;;;;;;;30.16;100.00;99611.79;1710655;84;21082;-77
2022/06/09 07:03:48;;;;;;;20.72;11.38;;;;;;;30.13;98.65;99606.02;1710025;84;21062;-76
2022/06/09 07:06:17;;;;;;;239.93;40.25;;;;;;;30.13;100.00;99606.83;1709925;84;21073;-78
2022/06/09 07:08:45;;;;;;;97.42;23.22;;;;;;;30.28;100.00;99606.50;1710427;84;21173;-80
2022/06/09 07:11:12;;;;;;;23.70;10.60;;;;;;;30.41;100.00;99606.23;1710570;84;21054;-80
2022/06/09 07:13:39;;;;;;;18.50;10.18;;;;;;;30.47;98.84;99599.41;1710417;84;21624;-76
2022/06/09 07:16:07;;;;;;;18.85;10.32;;;;;;;30.55;100.00;99606.20;1686788;84;21533;-76
2022/06/09 07:18:37;;;;;;;19.90;10.13;;;;;;;30.66;100.00;99599.80;1705379;84;21101;-77
2022/06/09 07:21:05;;;;;;;25.90;10.88;;;;;;;30.85;100.00;99603.23;1692105;83;21027;-74
2022/06/09 07:23:32;;;;;;;24.95;11.88;;;;;;;31.06;99.83;99599.96;1707379;84;21050;-75
2022/06/09 07:25:59;;;;;;;32.75;20.60;;;;;;;31.19;98.33;99607.41;1714226;84;21488;-74
2022/06/09 07:28:27;;;;;;;33.30;18.80;;;;;;;31.35;96.84;99600.03;1699450;84;21101;-75
2022/06/09 07:30:56;;;;;;;23.42;10.65;;;;;;;31.43;95.93;99597.87;1691052;84;21070;-77
2022/06/09 07:33:29;;;;;;;22.30;10.43;;;;;;;31.51;92.19;99604.08;1690227;84;21113;-78
2022/06/09 07:35:56;;;;;;;22.48;10.90;;;;;;;31.58;91.50;99602.23;1690407;84;20998;-76
2022/06/09 07:38:24;;;;;;;21.17;10.20;;;;;;;31.67;91.59;99601.67;1693428;84;21017;-74
2022/06/09 07:40:52;;;;;;;65.78;16.42;;;;;;;31.72;90.08;99602.12;1709766;83;21560;-76
2022/06/09 07:43:19;;;;;;;84.37;16.23;;;;;;;31.71;87.26;99598.48;1715043;84;21050;-73
2022/06/09 07:45:47;;;;;;;86.78;15.00;;;;;;;31.82;89.04;99600.98;1715236;82;21551;-79
2022/06/09 07:48:14;;;;;;;30.32;11.90;;;;;;;31.97;88.84;99601.94;1678687;85;21588;-76
2022/06/09 07:50:41;;;;;;;36.98;12.00;;;;;;;32.12;83.65;99602.08;1678261;85;21011;-76
2022/06/09 07:53:08;;;;;;;23.50;10.43;;;;;;;32.13;79.19;99603.16;1649119;87;21003;-72
2022/06/09 07:55:35;;;;;;;40.90;18.98;;;;;;;32.08;79.57;99605.28;1663216;86;21037;-74
2022/06/09 07:58:02;;;;;;;22.00;10.98;;;;;;;32.15;80.34;99605.63;1677975;85;20999;-73
2022/06/09 08:00:29;;;;;;;21.82;10.45;;;;;;;32.26;81.75;99598.59;1662829;86;21077;-73
2022/06/09 08:02:57;;;;;;;19.92;9.38;;;;;;;32.40;82.27;99594.80;1660269;85;20995;-72
2022/06/09 08:05:26;;;;;;;28.65;11.70;;;;;;;32.52;79.54;99597.19;1663105;86;21037;-71
2022/06/09 08:07:53;;;;;;;20.75;10.58;;;;;;;32.54;79.36;99601.88;1677907;85;21034;-72
2022/06/09 08:10:23;;;;;;;19.30;9.63;;;;;;;32.51;76.22;99602.55;1649120;87;21035;-72
2022/06/09 08:12:54;;;;;;;16.95;9.50;;;;;;;32.40;77.29;99603.19;1663040;86;21042;-72
2022/06/09 08:15:24;;;;;;;30.32;13.98;;;;;;;32.46;78.59;99601.89;1676802;85;21517;-73
2022/06/09 08:17:55;;;;;;;23.42;10.35;;;;;;;32.58;79.17;99604.02;1676546;86;21031;-71
2022/06/09 08:20:22;;;;;;;22.10;10.15;;;;;;;32.70;73.83;99603.63;1661531;86;21069;-72
2022/06/09 08:22:49;;;;;;;19.45;10.20;;;;;;;32.76;72.22;99606.27;1649501;87;21057;-72
2022/06/09 08:25:18;;;;;;;21.23;10.10;;;;;;;32.74;73.57;99592.59;1717513;83;21014;-71
2022/06/09 08:27:47;;;;;;;19.02;10.05;;;;;;;32.81;76.98;99592.95;1680494;85;21002;-73
2022/06/09 08:30:15;;;;;;;19.32;9.68;;;;;;;32.92;71.62;99594.82;1681017;85;21547;-79
2022/06/09 08:32:42;;;;;;;38.78;18.52;;;;;;;33.06;76.25;99589.00;1680977;84;21078;-78
2022/06/09 08:35:15;;;;;;;35.08;17.52;;;;;;;33.15;74.44;99589.02;1663799;86;21021;-80
2022/06/09 08:37:45;;;;;;;;;;;;;;;33.18;73.25;99577.16;1720619;83;20995;-76
2022/06/09 08:40:13;;;;;;;23.25;10.35;;;;;;;33.28;74.01;99582.40;1717807;83;20129;-76
2022/06/09 08:43:29;;;;;;;84.92;43.73;;;;;;;33.39;64.27;99583.67;1708524;83;21042;-77
2022/06/09 08:45:56;;;;;;;50.33;24.77;;;;;;;33.33;62.93;99577.20;1707540;84;21054;-76
2022/06/09 08:48:25;;;;;;;52.53;24.75;;;;;;;33.06;64.86;99584.80;1708148;84;21094;-77
2022/06/09 08:51:03;;;;;;;43.50;20.97;;;;;;;32.76;64.74;99580.52;1707988;84;21019;-75
2022/06/09 08:53:39;;;;;;;27.30;12.45;;;;;;;32.70;67.27;99577.03;1633033;87;21069;-75
2022/06/09 08:56:11;;;;;;;16.32;8.73;;;;;;;32.89;67.62;99574.48;1559082;92;21139;-73
2022/06/09 08:58:42;;;;;;;16.95;8.68;;;;;;;33.21;62.61;99573.69;1558008;91;21085;-72
2022/06/09 09:01:24;;;;;;;20.17;9.30;;;;;;;33.31;62.07;99573.34;1560006;92;21054;-76
2022/06/09 09:03:59;;;;;;;19.17;8.58;;;;;;;33.41;60.32;99574.34;1558895;92;21022;-75
2022/06/09 09:06:38;;;;;;;28.25;14.98;;;;;;;33.56;61.50;99572.16;1580040;90;21680;-75
2022/06/09 09:09:24;;;;;;;42.78;15.60;;;;;;;33.67;59.96;99576.25;1558198;92;21523;-75
2022/06/09 09:12:17;;;;;;;22.13;10.18;;;;;;;33.65;61.66;99576.55;1513235;95;21101;-79
2022/06/09 09:15:08;;;;;;;28.45;9.75;;;;;;;33.90;61.60;99568.96;1513474;95;21152;-75
2022/06/09 09:18:14;;;;;;;36.45;21.90;;;;;;;34.28;61.27;99565.25;1507427;95;21109;-78
2022/06/09 09:21:19;;;;;;;24.77;10.68;;;;;;;34.36;54.86;99567.19;1508647;95;21112;-75
2022/06/09 09:24:09;;;;;;;18.65;9.13;;;;;;;34.26;51.38;99570.39;1508191;95;21146;-79
2022/06/09 09:26:51;;;;;;;17.85;8.53;;;;;;;33.97;53.54;99560.83;1507372;95;21143;-77
2022/06/09 09:29:29;;;;;;;21.05;9.35;;;;;;;33.96;53.37;99557.77;1503995;95;21132;-76
2022/06/09 09:32:16;;;;;;;25.52;10.00;;;;;;;33.96;54.23;99557.22;1510483;95;21222;-81
2022/06/09 09:34:45;;;;;;;19.23;8.35;;;;;;;34.14;54.29;99551.46;1509543;95;21034;-73
2022/06/09 09:37:38;;;;;;;41.30;21.82;;;;;;;34.45;49.54;99551.09;1509231;95;20999;-72
2022/06/09 09:40:32;;;;;;;;;;;;;;;34.27;44.12;99555.22;1510660;95;21076;-72
2022/06/09 09:43:04;;;;;;;16.40;8.35;;;;;;;33.79;44.20;99555.33;1510838;95;20124;-71
2022/06/09 09:45:42;;;;;;;32.42;10.05;;;;;;;33.48;45.54;99548.05;1513290;90;21042;-72
2022/06/09 09:48:22;;;;;;;20.57;8.13;;;;;;;33.48;47.12;99560.66;1520708;94;21057;-73
2022/06/09 09:51:06;;;;;;;17.35;8.03;;;;;;;33.33;47.85;99559.00;1562472;91;21049;-74
2022/06/09 09:53:38;;;;;;;15.80;7.97;;;;;;;33.01;48.67;99555.02;1605441;88;21035;-72
2022/06/09 09:56:19;;;;;;;22.52;8.18;;;;;;;33.01;51.63;99559.80;1619163;88;21034;-70
2022/06/09 09:58:55;;;;;;;16.55;7.37;;;;;;;33.27;53.29;99552.17;1620219;88;21101;-74
2022/06/09 10:01:27;;;;;;;14.70;7.67;;;;;;;33.44;50.85;99554.66;1620172;88;21070;-74
2022/06/09 10:09:49;;;;;;;13.48;7.00;;;;;;;33.91;49.40;99550.96;1543230;90;21038;-74
2022/06/09 10:12:26;;;;;;;34.35;16.97;;;;;;;34.22;49.27;99543.60;1521036;92;21565;-72
2022/06/09 10:15:12;;;;;;;25.65;11.12;;;;;;;34.38;47.98;99547.42;1547454;92;21102;-74
2022/06/09 10:18:06;;;;;;;34.27;16.82;;;;;;;34.35;45.03;99545.33;1541716;92;21079;-77
2022/06/09 10:23:26;;;;;;;44.90;21.05;;;;;;;33.99;47.23;99545.30;1537305;93;21056;-74
2022/06/09 10:26:22;;;;;;;43.33;24.67;;;;;;;33.99;44.96;99536.07;1554059;92;21051;-72
2022/06/09 10:29:27;;;;;;;38.80;19.10;;;;;;;33.53;44.42;99532.20;1554849;92;21573;-72
2022/06/09 10:32:07;;;;;;;21.23;9.50;;;;;;;32.75;45.95;99546.67;1554381;92;21124;-73
2022/06/09 10:35:00;;;;;;;25.08;14.10;;;;;;;32.55;50.35;99537.77;1553407;92;21051;-74
2022/06/09 10:38:05;;;;;;;18.23;7.60;;;;;;;32.91;50.82;99526.78;1554682;92;21042;-72
2022/06/09 10:40:53;;;;;;;19.25;6.80;;;;;;;33.38;51.09;99527.41;1554460;92;21142;-73
2022/06/09 10:43:46;;;;;;;19.92;6.30;;;;;;;33.55;47.82;99527.07;1552821;92;21048;-73
2022/06/09 10:46:21;;;;;;;23.95;8.35;;;;;;;33.62;45.36;99528.17;1558160;90;21232;-73
2022/06/09 10:55:18;;;;;;;18.25;5.20;;;;;;;33.67;44.81;99516.80;1560190;91;21111;-74
2022/06/09 10:58:11;;;;;;;14.28;5.55;;;;;;;33.61;44.96;99521.53;1536671;93;21065;-72
2022/06/09 11:00:45;;;;;;;13.22;4.95;;;;;;;33.58;44.36;99516.59;1533269;93;21105;-74
2022/06/09 11:03:23;;;;;;;16.37;5.30;;;;;;;33.75;46.61;99509.52;1527009;94;21059;-73
2022/06/09 11:06:11;;;;;;;14.78;5.72;;;;;;;34.02;47.61;99507.35;1494104;94;21108;-75
2022/06/09 11:09:00;;;;;;;15.93;5.65;;;;;;;34.23;46.41;99510.19;1532386;93;21234;-72
2022/06/09 11:12:05;;;;;;;18.07;5.80;;;;;;;34.30;42.57;99520.28;1539392;93;21578;-73
2022/06/09 11:15:02;;;;;;;10.15;5.03;;;;;;;34.27;44.08;99515.34;1515929;93;21160;-72
2022/06/09 11:17:57;;;;;;;16.32;4.85;;;;;;;34.49;44.45;99504.91;1500196;94;21566;-74
2022/06/09 11:21:00;;;;;;;12.95;5.40;;;;;;;34.76;44.70;99503.50;1477633;97;21754;-73
2022/06/09 11:23:52;;;;;;;10.70;4.67;;;;;;;35.02;42.65;99501.81;1478959;97;21098;-74
2022/06/09 11:26:33;;;;;;;12.10;4.40;;;;;;;35.07;41.53;99503.59;1477030;97;21103;-74
2022/06/09 11:29:31;;;;;;;26.73;11.03;;;;;;;35.04;41.66;99506.49;1462127;97;21115;-76
2022/06/09 11:32:39;;;;;;;34.27;8.88;;;;;;;35.20;39.87;99503.01;1462671;96;21123;-72
2022/06/09 11:35:17;;;;;;;35.55;15.38;;;;;;;35.04;37.04;99500.06;1505235;93;21061;-75
2022/06/09 11:38:10;;;;;;;13.98;6.12;;;;;;;35.00;38.10;99502.75;1539831;93;21169;-72
2022/06/09 11:41:03;;;;;;;17.00;7.70;;;;;;;35.05;38.96;99496.09;1540533;93;21561;-74
2022/06/09 11:43:55;;;;;;;77.53;38.58;;;;;;;35.19;40.85;99500.80;1540933;92;21088;-73
2022/06/09 11:46:29;;;;;;;37.45;11.90;;;;;;;35.24;35.21;99491.33;1553568;92;21142;-77
2022/06/09 11:48:59;;;;;;;26.93;13.75;;;;;;;34.64;36.32;99495.05;1557248;92;21051;-75
2022/06/09 11:51:28;;;;;;;17.12;7.33;;;;;;;34.33;38.10;99497.71;1555308;92;21053;-77
2022/06/09 11:54:00;;;;;;;14.15;5.05;;;;;;;34.13;38.68;99498.75;1554987;92;21122;-74
2022/06/09 11:56:34;;;;;;;14.00;4.50;;;;;;;33.96;40.42;99498.33;1506347;95;21089;-75
2022/06/09 11:59:06;;;;;;;19.57;8.43;;;;;;;34.09;42.07;99502.02;1506265;95;21074;-74
2022/06/09 12:01:41;;;;;;;16.93;5.50;;;;;;;34.17;38.91;99509.52;1506431;94;21071;-74
2022/06/09 12:04:23;;;;;;;15.58;4.80;;;;;;;33.82;38.32;99507.00;1516502;94;21608;-73
2022/06/09 12:07:21;;;;;;;12.82;4.70;;;;;;;33.25;38.13;99504.07;1518684;94;21167;-74
2022/06/09 12:10:31;;;;;;;59.55;28.92;;;;;;;33.06;39.16;99496.03;1491185;96;21112;-73